Time;durP1;ratioP1;P1;durP2;ratioP2;P2;SDS_P1;SDS_P2;PMS_P1;PMS_P2;Temp;Humidity;BMP_temperature;BMP_pressure;BME280_temperature;BME280_humidity;BME280_pressure;Samples;Min_cycle;Max_cycle;Signal;HPM_P1;HPM_P2
2023/06/11 00:00:43;;;;;;;;;;;;;;;;;;10302121;28;19980;-76
2023/06/11 00:05:45;;;;;;;;;;;;;;;;;;10303577;28;19914;-76
2023/06/11 00:10:46;;;;;;;;;;;;;;;;;;10305997;28;19918;-76
2023/06/11 00:15:47;;;;;;;;;;;;;;;;;;10310953;28;20523;-75
2023/06/11 00:20:48;;;;;;;;;;;;;;;;;;10308077;28;20344;-76
2023/06/11 00:25:49;;;;;;;;;;;;;;;;;;10305134;28;19918;-76
2023/06/11 00:30:51;;;;;;;;;;;;;;;;;;10291334;28;20388;-76
2023/06/11 00:35:51;;;;;;;;;;;;;;;;;;10250541;28;19926;-74
2023/06/11 00:40:52;;;;;;;;;;;;;;;;;;10235495;28;20024;-76
2023/06/11 00:45:54;;;;;;;;;;;;;;;;;;10265018;28;19922;-76
2023/06/11 00:50:55;;;;;;;;;;;;;;;;;;10248783;28;20626;-76
2023/06/11 00:55:56;;;;;;;;;;;;;;;;;;10238977;28;19914;-76
2023/06/11 01:00:57;;;;;;;;;;;;;;;;;;10248075;28;19922;-76
2023/06/11 01:06:01;;;;;;;;;;;;;;;;;;10276855;28;19922;-77
2023/06/11 01:11:02;;;;;;;;;;;;;;;;;;10299895;28;20331;-76
2023/06/11 01:16:07;;;;;;;;;;;;;;;;;;10296078;28;19918;-76
2023/06/11 01:21:07;;;;;;;;;;;;;;;;;;10298273;28;19956;-75
2023/06/11 01:26:08;;;;;;;;;;;;;;;;;;10294280;28;20318;-76
2023/06/11 01:31:10;;;;;;;;;;;;;;;;;;10274826;28;19929;-75
2023/06/11 01:36:11;;;;;;;;;;;;;;;;;;10297078;28;19921;-77
2023/06/11 01:41:13;;;;;;;;;;;;;;;;;;10293444;28;19924;-76
2023/06/11 01:46:15;;;;;;;;;;;;;;;;;;10278126;28;20420;-76
2023/06/11 01:51:16;;;;;;;;;;;;;;;;;;10277837;28;19922;-76
2023/06/11 01:56:17;;;;;;;;;;;;;;;;;;10283566;28;20052;-76
2023/06/11 02:01:20;;;;;;;;;;;;;;;;;;10289145;28;19976;-76
2023/06/11 02:06:21;;;;;;;;;;;;;;;;;;10283854;28;19913;-76
2023/06/11 02:11:22;;;;;;;;;;;;;;;;;;10286372;28;19926;-75
2023/06/11 02:16:23;;;;;;;;;;;;;;;;;;10268324;28;20430;-76
2023/06/11 02:21:25;;;;;;;;;;;;;;;;;;10283525;28;19918;-75
2023/06/11 02:26:26;;;;;;;;;;;;;;;;;;10275961;28;19919;-76
2023/06/11 02:31:27;;;;;;;;;;;;;;;;;;10310978;28;19926;-76
2023/06/11 02:36:28;;;;;;;;;;;;;;;;;;10356077;28;19933;-76
2023/06/11 02:41:29;;;;;;;;;;;;;;;;;;10323528;28;19929;-76
2023/06/11 02:46:30;;;;;;;;;;;;;;;;;;10343786;28;20295;-76
2023/06/11 02:51:30;;;;;;;;;;;;;;;;;;10332087;28;20451;-76
2023/06/11 02:56:31;;;;;;;;;;;;;;;;;;10342626;28;19917;-73
2023/06/11 03:01:32;;;;;;;;;;;;;;;;;;10341455;28;19917;-76
2023/06/11 03:06:33;;;;;;;;;;;;;;;;;;10358713;28;19946;-76
2023/06/11 03:11:34;;;;;;;;;;;;;;;;;;10343446;28;19956;-77
2023/06/11 03:16:35;;;;;;;;;;;;;;;;;;10344715;28;19921;-76
2023/06/11 03:21:36;;;;;;;;;;;;;;;;;;10350298;28;20090;-77
2023/06/11 03:26:37;;;;;;;;;;;;;;;;;;10345941;28;19921;-75
2023/06/11 03:31:40;;;;;;;;;;;;;;;;;;10327938;28;20627;-76
2023/06/11 03:36:41;;;;;;;;;;;;;;;;;;10350059;28;19917;-76
2023/06/11 03:41:46;;;;;;;;;;;;;;;;;;10323333;28;20395;-76
2023/06/11 03:46:47;;;;;;;;;;;;;;;;;;10332575;28;19918;-76
2023/06/11 03:51:48;;;;;;;;;;;;;;;;;;10348941;28;19925;-75
2023/06/11 03:56:49;;;;;;;;;;;;;;;;;;10333698;28;19917;-76
2023/06/11 04:01:50;;;;;;;;;;;;;;;;;;10338317;28;19924;-76
2023/06/11 04:06:51;;;;;;;;;;;;;;;;;;10341812;28;19920;-76
2023/06/11 04:11:52;;;;;;;;;;;;;;;;;;10335439;28;19925;-76
2023/06/11 04:16:53;;;;;;;;;;;;;;;;;;10330311;28;19922;-76
2023/06/11 04:21:54;;;;;;;;;;;;;;;;;;10339508;28;19944;-76
2023/06/11 04:26:56;;;;;;;;;;;;;;;;;;10318949;28;19967;-77
2023/06/11 04:32:01;;;;;;;;;;;;;;;;;;10342930;28;20023;-76
2023/06/11 04:37:04;;;;;;;;;;;;;;;;;;10345083;28;19918;-76
2023/06/11 04:42:05;;;;;;;;;;;;;;;;;;10333877;28;19996;-77
2023/06/11 04:47:08;;;;;;;;;;;;;;;;;;10331457;28;20027;-76
2023/06/11 04:52:11;;;;;;;;;;;;;;;;;;10301590;28;20007;-77
2023/06/11 04:57:13;;;;;;;;;;;;;;;;;;10297892;28;19914;-77
2023/06/11 05:02:15;;;;;;;;;;;;;;;;;;10300356;28;19928;-77
2023/06/11 05:07:17;;;;;;;;;;;;;;;;;;10287278;28;19922;-77
2023/06/11 05:12:18;;;;;;;;;;;;;;;;;;10303245;28;19925;-77
2023/06/11 05:17:19;;;;;;;;;;;;;;;;;;10299404;28;20487;-77
2023/06/11 05:22:23;;;;;;;;;;;;;;;;;;10304946;28;19928;-78
2023/06/11 05:27:28;;;;;;;;;;;;;;;;;;10268889;28;19930;-78
2023/06/11 05:32:31;;;;;;;;;;;;;;;;;;10313473;28;19930;-78
2023/06/11 05:37:32;;;;;;;;;;;;;;;;;;10305475;28;19952;-80
2023/06/11 05:42:33;;;;;;;;;;;;;;;;;;10303615;28;19922;-78
2023/06/11 05:47:34;;;;;;;;;;;;;;;;;;10293909;28;19917;-78
2023/06/11 05:52:35;;;;;;;;;;;;;;;;;;10285148;28;19917;-75
2023/06/11 05:57:37;;;;;;;;;;;;;;;;;;10295757;28;20008;-77
2023/06/11 06:02:38;;;;;;;;;;;;;;;;;;10293723;28;19910;-78
2023/06/11 06:07:39;;;;;;;;;;;;;;;;;;10290274;28;19992;-78
2023/06/11 06:12:40;;;;;;;;;;;;;;;;;;10308989;28;19933;-78
2023/06/11 06:17:41;;;;;;;;;;;;;;;;;;10298739;28;19917;-78
2023/06/11 06:22:43;;;;;;;;;;;;;;;;;;10303295;28;20569;-78
2023/06/11 06:27:45;;;;;;;;;;;;;;;;;;10303807;28;20574;-77
2023/06/11 06:32:46;;;;;;;;;;;;;;;;;;10290367;28;19936;-80
2023/06/11 06:37:47;;;;;;;;;;;;;;;;;;10291855;28;20422;-80
2023/06/11 06:42:49;;;;;;;;;;;;;;;;;;10288304;28;19921;-79
2023/06/11 06:47:52;;;;;;;;;;;;;;;;;;10279534;28;19917;-79
2023/06/11 06:52:53;;;;;;;;;;;;;;;;;;10282537;28;20347;-80
2023/06/11 06:57:54;;;;;;;;;;;;;;;;;;10288439;28;19929;-79
2023/06/11 07:02:55;;;;;;;;;;;;;;;;;;10281423;28;19930;-81
2023/06/11 07:07:56;;;;;;;;;;;;;;;;;;10285313;28;19921;-79
2023/06/11 07:12:57;;;;;;;;;;;;;;;;;;10291369;28;19932;-79
2023/06/11 07:17:58;;;;;;;;;;;;;;;;;;10271978;28;20709;-77
2023/06/11 07:22:59;;;;;;;;;;;;;;;;;;10301365;28;19932;-78
2023/06/11 07:28:01;;;;;;;;;;;;;;;;;;10307639;28;19949;-77
2023/06/11 07:33:02;;;;;;;;;;;;;;;;;;10294961;28;19925;-76
2023/06/11 07:38:03;;;;;;;;;;;;;;;;;;10280563;28;21683;-77
2023/06/11 07:43:05;;;;;;;;;;;;;;;;;;10287111;28;19980;-77
2023/06/11 07:48:06;;;;;;;;;;;;;;;;;;10296900;28;19918;-77
2023/06/11 07:53:08;;;;;;;;;;;;;;;;;;10292319;28;19960;-79
2023/06/11 07:58:09;;;;;;;;;;;;;;;;;;10290374;28;19960;-78
2023/06/11 08:03:11;;;;;;;;;;;;;;;;;;10288571;28;19962;-79
2023/06/11 08:08:12;;;;;;;;;;;;;;;;;;10286026;28;20596;-80
2023/06/11 08:13:14;;;;;;;;;;;;;;;;;;10300178;28;19926;-79
2023/06/11 08:18:15;;;;;;;;;;;;;;;;;;10307512;28;19944;-77
2023/06/11 08:23:15;;;;;;;;;;;;;;;;;;10304104;28;19940;-77
2023/06/11 08:28:16;;;;;;;;;;;;;;;;;;10304432;28;19949;-78
2023/06/11 08:33:17;;;;;;;;;;;;;;;;;;10308853;28;20498;-78
2023/06/11 08:38:18;;;;;;;;;;;;;;;;;;10301566;28;19917;-79
2023/06/11 08:43:19;;;;;;;;;;;;;;;;;;10306055;28;19925;-79
2023/06/11 08:48:23;;;;;;;;;;;;;;;;;;10306075;28;19921;-78
2023/06/11 08:53:24;;;;;;;;;;;;;;;;;;10300547;28;20457;-78
2023/06/11 08:58:25;;;;;;;;;;;;;;;;;;10297206;28;19957;-79
2023/06/11 09:03:26;;;;;;;;;;;;;;;;;;10304417;28;19987;-80
2023/06/11 09:08:27;;;;;;;;;;;;;;;;;;10296125;28;19925;-79
2023/06/11 09:13:28;;;;;;;;;;;;;;;;;;10304237;28;19980;-79
2023/06/11 09:18:29;;;;;;;;;;;;;;;;;;10315684;28;19917;-77
2023/06/11 09:23:30;;;;;;;;;;;;;;;;;;10298634;28;19953;-79
2023/06/11 09:28:31;;;;;;;;;;;;;;;;;;10293911;28;20012;-77
2023/06/11 09:33:32;;;;;;;;;;;;;;;;;;10302741;28;20021;-78
2023/06/11 09:38:36;;;;;;;;;;;;;;;;;;10284938;28;19924;-78
2023/06/11 09:43:37;;;;;;;;;;;;;;;;;;10302848;28;19924;-79
2023/06/11 09:48:38;;;;;;;;;;;;;;;;;;10296717;28;19980;-78
2023/06/11 09:53:39;;;;;;;;;;;;;;;;;;10281248;28;20008;-79
2023/06/11 09:58:40;;;;;;;;;;;;;;;;;;10319921;28;20405;-78
2023/06/11 10:03:42;;;;;;;;;;;;;;;;;;10313121;28;19918;-77
2023/06/11 10:08:43;;;;;;;;;;;;;;;;;;10303993;28;19961;-77
2023/06/11 10:13:44;;;;;;;;;;;;;;;;;;10301862;28;20028;-78
2023/06/11 10:18:45;;;;;;;;;;;;;;;;;;10282981;28;20024;-78
2023/06/11 10:23:46;;;;;;;;;;;;;;;;;;10284085;28;19918;-77
2023/06/11 10:28:51;;;;;;;;;;;;;;;;;;10303889;28;20359;-77
2023/06/11 10:33:52;;;;;;;;;;;;;;;;;;10303525;28;19964;-78
2023/06/11 10:38:53;;;;;;;;;;;;;;;;;;10302930;28;20007;-78
2023/06/11 10:43:54;;;;;;;;;;;;;;;;;;10309045;28;20406;-78
2023/06/11 10:48:55;;;;;;;;;;;;;;;;;;10299252;28;19932;-77
2023/06/11 10:53:56;;;;;;;;;;;;;;;;;;10298262;28;20458;-78
2023/06/11 10:58:57;;;;;;;;;;;;;;;;;;10299189;28;19918;-76
2023/06/11 11:03:58;;;;;;;;;;;;;;;;;;10310657;28;19913;-74
2023/06/11 11:09:02;;;;;;;;;;;;;;;;;;10302230;28;19918;-78
2023/06/11 11:14:03;;;;;;;;;;;;;;;;;;10311654;28;19960;-75
2023/06/11 11:19:04;;;;;;;;;;;;;;;;;;10294292;28;19934;-78
2023/06/11 11:24:05;;;;;;;;;;;;;;;;;;10310519;28;20307;-78
2023/06/11 11:29:06;;;;;;;;;;;;;;;;;;10296165;28;19968;-78
2023/06/11 11:34:07;;;;;;;;;;;;;;;;;;10313463;28;19932;-78
2023/06/11 11:39:09;;;;;;;;;;;;;;;;;;10289978;28;19922;-78
2023/06/11 11:44:10;;;;;;;;;;;;;;;;;;10308237;28;19956;-78
2023/06/11 11:49:11;;;;;;;;;;;;;;;;;;10311717;28;19964;-80
2023/06/11 11:54:13;;;;;;;;;;;;;;;;;;10332006;28;20002;-77
2023/06/11 11:59:15;;;;;;;;;;;;;;;;;;10314147;28;19921;-76
2023/06/11 12:04:21;;;;;;;;;;;;;;;;;;10316394;28;19917;-79
2023/06/11 12:09:22;;;;;;;;;;;;;;;;;;10302672;28;20141;-78
2023/06/11 12:14:23;;;;;;;;;;;;;;;;;;10303843;28;19925;-76
2023/06/11 12:19:24;;;;;;;;;;;;;;;;;;10297300;28;19924;-75
2023/06/11 12:24:25;;;;;;;;;;;;;;;;;;10314495;28;20358;-77
2023/06/11 12:29:26;;;;;;;;;;;;;;;;;;10316220;28;19972;-76
2023/06/11 12:34:27;;;;;;;;;;;;;;;;;;10314427;28;19928;-75
2023/06/11 12:39:28;;;;;;;;;;;;;;;;;;10292994;28;20001;-75
2023/06/11 12:44:29;;;;;;;;;;;;;;;;;;10313954;28;20033;-77
2023/06/11 12:49:31;;;;;;;;;;;;;;;;;;10308558;28;19944;-76
2023/06/11 12:54:32;;;;;;;;;;;;;;;;;;10301880;28;20295;-77
2023/06/11 12:59:33;;;;;;;;;;;;;;;;;;10307786;28;19921;-76
2023/06/11 13:04:34;;;;;;;;;;;;;;;;;;10329835;28;19917;-76
2023/06/11 13:09:35;;;;;;;;;;;;;;;;;;10307024;28;20190;-78
2023/06/11 13:14:36;;;;;;;;;;;;;;;;;;10319102;28;19998;-78
2023/06/11 13:19:37;;;;;;;;;;;;;;;;;;10322837;28;19925;-78
2023/06/11 13:24:37;;;;;;;;;;;;;;;;;;10306957;28;19918;-77
2023/06/11 13:29:38;;;;;;;;;;;;;;;;;;10314833;28;20159;-77
2023/06/11 13:34:39;;;;;;;;;;;;;;;;;;10305721;28;19913;-75
2023/06/11 13:39:40;;;;;;;;;;;;;;;;;;10304398;28;19917;-78
2023/06/11 13:44:41;;;;;;;;;;;;;;;;;;10307155;28;19922;-79
2023/06/11 13:49:42;;;;;;;;;;;;;;;;;;10303187;28;20001;-78
2023/06/11 13:54:43;;;;;;;;;;;;;;;;;;10299938;28;20346;-78
2023/06/11 13:59:45;;;;;;;;;;;;;;;;;;10305819;28;19968;-78
2023/06/11 14:04:45;;;;;;;;;;;;;;;;;;10306476;28;20276;-76
2023/06/11 14:09:47;;;;;;;;;;;;;;;;;;10289677;28;19921;-77
2023/06/11 14:14:48;;;;;;;;;;;;;;;;;;10303968;28;19921;-77
2023/06/11 14:19:49;;;;;;;;;;;;;;;;;;10300812;28;19921;-78
2023/06/11 14:24:50;;;;;;;;;;;;;;;;;;10303441;28;19917;-78
2023/06/11 14:29:51;;;;;;;;;;;;;;;;;;10288586;28;19937;-79
2023/06/11 14:34:52;;;;;;;;;;;;;;;;;;10299727;28;19925;-78
2023/06/11 14:39:53;;;;;;;;;;;;;;;;;;10291676;28;20000;-77
2023/06/11 14:44:54;;;;;;;;;;;;;;;;;;10291377;28;20386;-80
2023/06/11 14:49:55;;;;;;;;;;;;;;;;;;10294543;28;19930;-78
2023/06/11 14:54:56;;;;;;;;;;;;;;;;;;10308024;28;19918;-78
2023/06/11 14:59:57;;;;;;;;;;;;;;;;;;10292279;28;20371;-78
2023/06/11 15:04:58;;;;;;;;;;;;;;;;;;10293768;28;19914;-80
2023/06/11 15:09:59;;;;;;;;;;;;;;;;;;10290139;28;19948;-79
2023/06/11 15:15:00;;;;;;;;;;;;;;;;;;10293695;28;19940;-77
2023/06/11 15:20:01;;;;;;;;;;;;;;;;;;10293285;28;19969;-79
2023/06/11 15:25:02;;;;;;;;;;;;;;;;;;10298761;28;20292;-78
2023/06/11 15:30:03;;;;;;;;;;;;;;;;;;10298493;28;19926;-80
2023/06/11 15:35:05;;;;;;;;;;;;;;;;;;10293643;28;20458;-79
2023/06/11 15:40:06;;;;;;;;;;;;;;;;;;10295534;28;19913;-79
2023/06/11 15:45:08;;;;;;;;;;;;;;;;;;10295668;28;20422;-77
2023/06/11 15:50:09;;;;;;;;;;;;;;;;;;10289375;28;19917;-78
2023/06/11 15:55:10;;;;;;;;;;;;;;;;;;10290422;28;20261;-78
2023/06/11 16:00:11;;;;;;;;;;;;;;;;;;10295498;28;20699;-78
2023/06/11 16:05:12;;;;;;;;;;;;;;;;;;10295093;28;19913;-79
2023/06/11 16:10:13;;;;;;;;;;;;;;;;;;10301351;28;19925;-79
2023/06/11 16:15:14;;;;;;;;;;;;;;;;;;10298101;28;19932;-79
2023/06/11 16:20:15;;;;;;;;;;;;;;;;;;10298100;28;20881;-79
2023/06/11 16:25:19;;;;;;;;;;;;;;;;;;10296459;28;19968;-80
2023/06/11 16:30:20;;;;;;;;;;;;;;;;;;10308508;28;19921;-78
2023/06/11 16:35:21;;;;;;;;;;;;;;;;;;10294544;28;19939;-79
2023/06/11 16:40:22;;;;;;;;;;;;;;;;;;10296839;28;19925;-77
2023/06/11 16:45:23;;;;;;;;;;;;;;;;;;10299942;28;19910;-78
2023/06/11 16:50:24;;;;;;;;;;;;;;;;;;10297623;28;19936;-76
2023/06/11 16:55:25;;;;;;;;;;;;;;;;;;10311125;28;19913;-79
2023/06/11 17:00:26;;;;;;;;;;;;;;;;;;10289868;28;19924;-78
2023/06/11 17:05:27;;;;;;;;;;;;;;;;;;10301831;28;20363;-82
2023/06/11 17:10:28;;;;;;;;;;;;;;;;;;10304383;28;20536;-80
2023/06/11 17:15:29;;;;;;;;;;;;;;;;;;10310509;28;19917;-80
2023/06/11 17:20:30;;;;;;;;;;;;;;;;;;10312923;28;20534;-78
2023/06/11 17:25:31;;;;;;;;;;;;;;;;;;10300883;28;19921;-80
2023/06/11 17:30:32;;;;;;;;;;;;;;;;;;10298825;28;19961;-79
2023/06/11 17:35:33;;;;;;;;;;;;;;;;;;10303867;28;19929;-80
2023/06/11 17:40:34;;;;;;;;;;;;;;;;;;10296784;28;20375;-79
2023/06/11 17:45:35;;;;;;;;;;;;;;;;;;10306163;28;20395;-80
2023/06/11 17:50:36;;;;;;;;;;;;;;;;;;10316596;28;21007;-80
2023/06/11 17:55:37;;;;;;;;;;;;;;;;;;10302142;28;19917;-80
2023/06/11 18:00:38;;;;;;;;;;;;;;;;;;10303994;28;20303;-80
2023/06/11 18:05:38;;;;;;;;;;;;;;;;;;10305737;28;19929;-79
2023/06/11 18:10:39;;;;;;;;;;;;;;;;;;10300266;28;21366;-81
2023/06/11 18:15:40;;;;;;;;;;;;;;;;;;10308329;28;19913;-83
2023/06/11 18:20:41;;;;;;;;;;;;;;;;;;10310013;28;20446;-80
2023/06/11 18:25:42;;;;;;;;;;;;;;;;;;10312078;28;19917;-78
2023/06/11 18:30:43;;;;;;;;;;;;;;;;;;10300824;28;19925;-80
2023/06/11 18:35:44;;;;;;;;;;;;;;;;;;10308391;28;19918;-81
2023/06/11 18:40:45;;;;;;;;;;;;;;;;;;10303472;28;19921;-81
2023/06/11 18:45:46;;;;;;;;;;;;;;;;;;10302321;28;20357;-82
2023/06/11 18:50:48;;;;;;;;;;;;;;;;;;10298077;28;19928;-80
2023/06/11 18:55:49;;;;;;;;;;;;;;;;;;10303515;28;19921;-79
2023/06/11 19:00:50;;;;;;;;;;;;;;;;;;10306910;28;19929;-80
2023/06/11 19:05:51;;;;;;;;;;;;;;;;;;10302471;28;19918;-79
2023/06/11 19:10:52;;;;;;;;;;;;;;;;;;10311871;28;19936;-80
2023/06/11 19:15:53;;;;;;;;;;;;;;;;;;10313462;28;19925;-79
2023/06/11 19:20:55;;;;;;;;;;;;;;;;;;10321543;28;20450;-80
2023/06/11 19:25:56;;;;;;;;;;;;;;;;;;10330911;28;19976;-80
2023/06/11 19:30:57;;;;;;;;;;;;;;;;;;10309772;28;20020;-81
2023/06/11 19:35:58;;;;;;;;;;;;;;;;;;10317702;28;19924;-80
2023/06/11 19:40:59;;;;;;;;;;;;;;;;;;10320881;28;19981;-80
2023/06/11 19:46:00;;;;;;;;;;;;;;;;;;10307428;28;19917;-80
2023/06/11 19:51:01;;;;;;;;;;;;;;;;;;10309987;28;19949;-81
2023/06/11 19:56:02;;;;;;;;;;;;;;;;;;10309351;28;20075;-80
2023/06/11 20:01:02;;;;;;;;;;;;;;;;;;10311229;28;20408;-81
2023/06/11 20:06:03;;;;;;;;;;;;;;;;;;10310466;28;19917;-80
2023/06/11 20:11:08;;;;;;;;;;;;;;;;;;10328629;28;19922;-80
2023/06/11 20:16:09;;;;;;;;;;;;;;;;;;10330465;28;19921;-81
2023/06/11 20:21:10;;;;;;;;;;;;;;;;;;10318909;28;20376;-81
2023/06/11 20:26:11;;;;;;;;;;;;;;;;;;10324941;28;19924;-80
2023/06/11 20:31:12;;;;;;;;;;;;;;;;;;10315331;28;19929;-78
2023/06/11 20:36:13;;;;;;;;;;;;;;;;;;10300477;28;19913;-79
2023/06/11 20:41:14;;;;;;;;;;;;;;;;;;10306713;28;19918;-78
2023/06/11 20:46:15;;;;;;;;;;;;;;;;;;10306277;28;20391;-79
2023/06/11 20:51:16;;;;;;;;;;;;;;;;;;10303514;28;19922;-78
2023/06/11 20:56:18;;;;;;;;;;;;;;;;;;10289737;28;19972;-78
2023/06/11 21:01:20;;;;;;;;;;;;;;;;;;10310640;28;20590;-77
2023/06/11 21:06:21;;;;;;;;;;;;;;;;;;10307067;28;19918;-79
2023/06/11 21:11:23;;;;;;;;;;;;;;;;;;10305281;28;19926;-78
2023/06/11 21:16:24;;;;;;;;;;;;;;;;;;10301302;28;19918;-77
2023/06/11 21:21:25;;;;;;;;;;;;;;;;;;10307467;28;19922;-77
2023/06/11 21:26:26;;;;;;;;;;;;;;;;;;10301602;28;19945;-78
2023/06/11 21:31:26;;;;;;;;;;;;;;;;;;10303800;28;20036;-78
2023/06/11 21:36:27;;;;;;;;;;;;;;;;;;10306573;28;19918;-77
2023/06/11 21:41:28;;;;;;;;;;;;;;;;;;10293806;28;19913;-78
2023/06/11 21:46:29;;;;;;;;;;;;;;;;;;10291097;28;20024;-77
2023/06/11 21:51:30;;;;;;;;;;;;;;;;;;10297697;28;19925;-79
2023/06/11 21:56:31;;;;;;;;;;;;;;;;;;10304916;28;19925;-77
2023/06/11 22:01:32;;;;;;;;;;;;;;;;;;10315317;28;19956;-77
2023/06/11 22:06:33;;;;;;;;;;;;;;;;;;10312576;28;19921;-79
2023/06/11 22:11:36;;;;;;;;;;;;;;;;;;10316977;28;19921;-79
2023/06/11 22:16:43;;;;;;;;;;;;;;;;;;10306609;28;19925;-79
2023/06/11 22:21:45;;;;;;;;;;;;;;;;;;10299723;28;19932;-79
2023/06/11 22:26:46;;;;;;;;;;;;;;;;;;10300750;28;19917;-79
2023/06/11 22:31:47;;;;;;;;;;;;;;;;;;10301604;28;19925;-77
2023/06/11 22:36:48;;;;;;;;;;;;;;;;;;10304052;28;19917;-77
2023/06/11 22:41:48;;;;;;;;;;;;;;;;;;10316849;28;20283;-77
2023/06/11 22:46:49;;;;;;;;;;;;;;;;;;10297157;28;19972;-77
2023/06/11 22:51:52;;;;;;;;;;;;;;;;;;10300171;28;19925;-78
2023/06/11 22:56:52;;;;;;;;;;;;;;;;;;10302711;28;20001;-78
2023/06/11 23:01:53;;;;;;;;;;;;;;;;;;10293653;28;20056;-77
2023/06/11 23:06:54;;;;;;;;;;;;;;;;;;10288857;28;19976;-76
2023/06/11 23:11:55;;;;;;;;;;;;;;;;;;10292261;28;19925;-78
2023/06/11 23:16:58;;;;;;;;;;;;;;;;;;10295123;28;19987;-78
2023/06/11 23:22:01;;;;;;;;;;;;;;;;;;10298086;28;20017;-77
2023/06/11 23:27:02;;;;;;;;;;;;;;;;;;10295786;28;19964;-76
2023/06/11 23:32:03;;;;;;;;;;;;;;;;;;10307368;28;19930;-78
2023/06/11 23:37:06;;;;;;;;;;;;;;;;;;10284928;28;20946;-78
2023/06/11 23:42:07;;;;;;;;;;;;;;;;;;10310338;28;21275;-77
2023/06/11 23:47:08;;;;;;;;;;;;;;;;;;10298587;28;20016;-75
2023/06/11 23:52:09;;;;;;;;;;;;;;;;;;10303911;28;19921;-78
2023/06/11 23:57:10;;;;;;;;;;;;;;;;;;10297683;28;19925;-78
